createdAt,value
2023-05-07T00:00:40.541Z,9.55
2023-05-07T00:04:40.758Z,8.07
2023-05-07T00:08:40.493Z,8.07
2023-05-07T00:12:40.383Z,8.45
2023-05-07T00:16:40.333Z,8.35
2023-05-07T00:20:40.552Z,8.15
2023-05-07T00:24:39.739Z,8.23
2023-05-07T00:28:40.445Z,8.18
2023-05-07T00:32:40.651Z,7.57
2023-05-07T00:36:40.487Z,8.65
2023-05-07T00:40:40.447Z,8.65
2023-05-07T00:44:40.474Z,8.27
2023-05-07T00:48:40.528Z,8.85
2023-05-07T00:52:40.587Z,8.98
2023-05-07T00:56:40.559Z,9.52
2023-05-07T01:00:40.497Z,9.45
2023-05-07T01:04:41.059Z,10.5
2023-05-07T01:08:40.632Z,9.65
2023-05-07T01:12:40.549Z,10.3
2023-05-07T01:16:40.643Z,10.88
2023-05-07T01:20:40.348Z,9.88
2023-05-07T01:24:40.464Z,11.7
2023-05-07T01:28:40.570Z,12.18
2023-05-07T01:32:40.789Z,13.75
2023-05-07T01:36:40.535Z,13.52
2023-05-07T01:40:40.426Z,13.2
2023-05-07T01:44:40.365Z,13.9
2023-05-07T01:48:41.022Z,13.3
2023-05-07T01:52:40.987Z,13.07
2023-05-07T01:56:40.441Z,14.75
2023-05-07T02:00:40.398Z,15.27
2023-05-07T02:04:40.635Z,16.3
2023-05-07T02:08:40.786Z,14.75
2023-05-07T02:12:40.559Z,15.57
2023-05-07T02:16:40.587Z,14.8
2023-05-07T02:20:40.483Z,14.32
2023-05-07T02:24:40.381Z,14.75
2023-05-07T02:28:40.432Z,15.98
2023-05-07T02:32:40.518Z,16.6
2023-05-07T02:36:40.284Z,16.35
2023-05-07T02:40:40.509Z,16.17
2023-05-07T02:44:40.656Z,17.17
2023-05-07T02:48:40.408Z,16.25
2023-05-07T02:52:40.423Z,16.37
2023-05-07T02:56:40.540Z,15.57
2023-05-07T03:00:39.662Z,16.65
2023-05-07T03:04:41.074Z,16.55
2023-05-07T03:08:40.452Z,17.92
2023-05-07T03:12:40.583Z,18.7
2023-05-07T03:16:40.600Z,17.23
2023-05-07T03:20:40.085Z,17.5
2023-05-07T03:24:40.662Z,17.08
2023-05-07T03:28:40.864Z,15.55
2023-05-07T03:32:40.441Z,16.83
2023-05-07T03:36:40.309Z,16.75
2023-05-07T03:40:39.775Z,15.23
2023-05-07T03:44:40.979Z,16.25
2023-05-07T03:48:40.835Z,15.73
2023-05-07T03:52:40.385Z,15.25
2023-05-07T03:56:40.455Z,14.68
2023-05-07T04:00:40.647Z,15.3
2023-05-07T04:04:40.654Z,13.88
2023-05-07T04:08:39.268Z,14.1
2023-05-07T04:12:40.448Z,15.73
2023-05-07T04:16:40.429Z,14.87
2023-05-07T04:20:40.509Z,15.02
2023-05-07T04:24:41.108Z,15.15
2023-05-07T04:28:40.487Z,16.12
2023-05-07T04:32:40.617Z,16.4
2023-05-07T04:36:40.382Z,16.4
2023-05-07T04:40:40.562Z,18.2
2023-05-07T04:44:40.978Z,15.4
2023-05-07T04:48:40.862Z,15.73
2023-05-07T04:52:41.140Z,14.27
2023-05-07T04:56:40.746Z,14.68
2023-05-07T05:00:41.049Z,11.88
2023-05-07T05:04:40.752Z,12.43
2023-05-07T05:08:40.434Z,12.3
2023-05-07T05:12:40.471Z,9.05
2023-05-07T05:16:40.713Z,10.3
2023-05-07T05:20:41.530Z,10.48
2023-05-07T05:24:40.408Z,9
2023-05-07T05:28:40.686Z,10.02
2023-05-07T05:32:40.310Z,9.18
2023-05-07T05:36:40.641Z,10.18
2023-05-07T05:40:40.264Z,8.73
2023-05-07T05:44:40.992Z,10.75
2023-05-07T05:48:40.575Z,11.82
2023-05-07T05:52:40.530Z,10.32
2023-05-07T05:56:40.950Z,10.48
2023-05-07T06:00:40.563Z,9.35
2023-05-07T06:04:40.508Z,10.23
2023-05-07T06:08:40.191Z,9.65
2023-05-07T06:12:40.924Z,8.82
2023-05-07T06:16:40.293Z,10.35
2023-05-07T06:20:40.522Z,8.38
2023-05-07T06:24:41.201Z,7.78
2023-05-07T06:28:40.411Z,9.32
2023-05-07T06:32:40.593Z,8.2
2023-05-07T06:36:40.448Z,9.63
2023-05-07T06:40:40.614Z,10.07
2023-05-07T06:44:39.265Z,9.52
2023-05-07T06:48:40.510Z,8.95
2023-05-07T06:52:40.569Z,9.98
2023-05-07T06:56:40.486Z,8.63
2023-05-07T07:00:40.260Z,9.23
2023-05-07T07:04:40.121Z,9.7
2023-05-07T07:08:40.716Z,8.8
2023-05-07T07:12:40.611Z,9.6
2023-05-07T07:16:40.957Z,9.1
2023-05-07T07:20:40.737Z,8.77
2023-05-07T07:24:39.475Z,8.15
2023-05-07T07:28:39.853Z,7.82
2023-05-07T07:32:40.879Z,7.62
2023-05-07T07:36:46.325Z,7
2023-05-07T07:40:40.650Z,6.28
2023-05-07T07:44:39.508Z,6.9
2023-05-07T07:48:40.542Z,5.87
2023-05-07T07:52:40.791Z,6.12
2023-05-07T07:56:40.512Z,6.12
2023-05-07T08:00:40.480Z,5.5
2023-05-07T08:04:40.053Z,5.45
2023-05-07T08:08:40.651Z,5.8
2023-05-07T08:12:40.546Z,5.15
2023-05-07T08:16:40.576Z,4.97
2023-05-07T08:20:40.587Z,4.62
2023-05-07T08:24:40.493Z,4.03
2023-05-07T08:28:40.530Z,4.62
2023-05-07T08:32:40.520Z,3.5
2023-05-07T08:36:40.456Z,3.72
2023-05-07T08:40:40.547Z,3.33
2023-05-07T08:44:39.408Z,3.83
2023-05-07T08:48:40.543Z,3.55
2023-05-07T08:52:40.573Z,3.33
2023-05-07T08:56:40.513Z,2.15
2023-05-07T09:00:40.743Z,3.37
2023-05-07T09:04:40.701Z,2.9
2023-05-07T09:08:40.820Z,3.47
2023-05-07T09:12:40.455Z,2.97
2023-05-07T09:16:40.637Z,2.33
2023-05-07T09:20:40.979Z,2.65
2023-05-07T09:24:40.578Z,2.8
2023-05-07T09:28:40.442Z,2.78
2023-05-07T09:32:40.895Z,2.6
2023-05-07T09:36:40.479Z,2.33
2023-05-07T09:40:40.645Z,3.12
2023-05-07T09:44:39.789Z,2.95
2023-05-07T09:48:41.146Z,3.37
2023-05-07T09:52:41.052Z,3.72
2023-05-07T09:56:40.606Z,3.87
2023-05-07T10:00:40.963Z,3.33
2023-05-07T10:04:40.707Z,3.35
2023-05-07T10:08:40.581Z,3.08
2023-05-07T10:12:40.544Z,2.6
2023-05-07T10:16:40.244Z,3.7
2023-05-07T10:20:41.143Z,3.42
2023-05-07T10:24:40.482Z,3.6
2023-05-07T10:28:40.164Z,3.53
2023-05-07T10:32:40.932Z,3.5
2023-05-07T10:36:40.508Z,3.17
2023-05-07T10:40:41.165Z,3.33
2023-05-07T10:44:40.438Z,3.78
2023-05-07T10:48:41.152Z,3.87
2023-05-07T10:52:41.128Z,3.28
2023-05-07T10:56:40.159Z,3.58
2023-05-07T11:00:41.045Z,4.22
2023-05-07T11:04:40.320Z,3.05
2023-05-07T11:08:40.802Z,2.95
2023-05-07T11:12:40.579Z,2.92
2023-05-07T11:16:40.380Z,2.58
2023-05-07T11:20:39.460Z,2.47
2023-05-07T11:24:40.263Z,2.87
2023-05-07T11:28:40.575Z,2.75
2023-05-07T11:32:40.554Z,2.35
2023-05-07T11:36:40.450Z,2.6
2023-05-07T11:40:40.555Z,3.7
2023-05-07T11:44:40.650Z,3.15
2023-05-07T11:48:40.439Z,2.72
2023-05-07T11:52:41.275Z,3.47
2023-05-07T11:56:41.134Z,3.97
2023-05-07T12:00:40.567Z,3.37
2023-05-07T12:04:40.804Z,2.75
2023-05-07T12:08:40.531Z,2.4
2023-05-07T12:12:40.460Z,2.1
2023-05-07T12:16:40.568Z,2.28
2023-05-07T12:20:39.877Z,2.62
2023-05-07T12:24:40.823Z,1.92
2023-05-07T12:28:40.528Z,2.25
2023-05-07T12:32:40.433Z,2.4
2023-05-07T12:36:40.410Z,2.05
2023-05-07T12:40:40.707Z,2.15
2023-05-07T12:44:40.630Z,3.05
2023-05-07T12:48:39.304Z,2.75
2023-05-07T12:52:40.446Z,2.15
2023-05-07T12:56:40.677Z,2.22
2023-05-07T13:00:40.638Z,1.87
2023-05-07T13:04:40.557Z,2.12
2023-05-07T13:08:40.477Z,2.55
2023-05-07T13:12:40.101Z,2.5
2023-05-07T13:16:41.422Z,2.33
2023-05-07T13:20:40.376Z,2.42
2023-05-07T13:24:40.959Z,3.1
2023-05-07T13:28:40.956Z,3.05
2023-05-07T13:32:40.357Z,2.6
2023-05-07T13:36:40.505Z,2.7
2023-05-07T13:40:40.919Z,2.87
2023-05-07T13:44:40.486Z,2.6
2023-05-07T13:48:40.556Z,2.78
2023-05-07T13:52:40.585Z,2.9
2023-05-07T13:56:40.332Z,2.55
2023-05-07T14:00:40.740Z,2.87
2023-05-07T14:04:40.702Z,2.97
2023-05-07T14:08:40.658Z,2.9
2023-05-07T14:12:40.661Z,2.83
2023-05-07T14:16:40.968Z,3.1
2023-05-07T14:20:40.338Z,2.7
2023-05-07T14:24:40.505Z,3.3
2023-05-07T14:28:40.251Z,3.2
2023-05-07T14:32:40.589Z,3.55
2023-05-07T14:36:40.627Z,3.08
2023-05-07T14:40:41.083Z,3.37
2023-05-07T14:44:40.717Z,3.7
2023-05-07T14:48:41.234Z,3.42
2023-05-07T14:52:40.452Z,3.53
2023-05-07T14:56:40.641Z,3.6
2023-05-07T15:00:40.632Z,3.08
2023-05-07T15:04:40.934Z,3
2023-05-07T15:08:40.484Z,3.2
2023-05-07T15:12:40.726Z,3.28
2023-05-07T15:16:40.700Z,2.5
2023-05-07T15:20:40.536Z,2.47
2023-05-07T15:24:40.417Z,2.17
2023-05-07T15:28:40.898Z,2.42
2023-05-07T15:32:40.594Z,2.7
2023-05-07T15:36:40.446Z,2.47
2023-05-07T15:40:40.635Z,2.33
2023-05-07T15:44:40.959Z,2.62
2023-05-07T15:48:40.858Z,2.7
2023-05-07T15:52:39.609Z,2.05
2023-05-07T15:56:40.557Z,2.1
2023-05-07T16:00:40.730Z,2.17
2023-05-07T16:04:40.406Z,1.9
2023-05-07T16:08:40.846Z,2.4
2023-05-07T16:12:40.778Z,2.12
2023-05-07T16:16:40.418Z,2.33
2023-05-07T16:20:40.767Z,2.25
2023-05-07T16:24:40.784Z,2.1
2023-05-07T16:28:40.484Z,2.1
2023-05-07T16:32:40.549Z,2.12
2023-05-07T16:36:40.441Z,2.2
2023-05-07T16:40:40.970Z,1.98
2023-05-07T16:44:40.445Z,2.15
2023-05-07T16:48:40.535Z,2.15
2023-05-07T16:52:39.687Z,2.45
2023-05-07T16:56:40.676Z,2.12
2023-05-07T17:04:40.638Z,2.47
2023-05-07T17:08:42.144Z,2.72
2023-05-07T17:12:41.003Z,2.28
2023-05-07T17:16:40.814Z,1.87
2023-05-07T17:20:40.583Z,1.7
2023-05-07T17:24:40.423Z,2.72
2023-05-07T17:28:40.504Z,1.98
2023-05-07T17:32:40.668Z,2.33
2023-05-07T17:36:40.598Z,2.08
2023-05-07T17:40:40.604Z,2.08
2023-05-07T17:44:40.407Z,1.9
2023-05-07T17:48:40.519Z,2.58
2023-05-07T17:52:40.670Z,2.67
2023-05-07T17:56:41.216Z,2.75
2023-05-07T18:00:40.760Z,2.53
2023-05-07T18:04:40.786Z,3.35
2023-05-07T18:08:40.412Z,2.78
2023-05-07T18:12:40.842Z,1.87
2023-05-07T18:16:40.706Z,2.45
2023-05-07T18:20:40.576Z,2.2
2023-05-07T18:24:40.402Z,2.05
2023-05-07T18:28:40.411Z,2.53
2023-05-07T18:32:40.336Z,2.55
2023-05-07T18:36:40.716Z,2.62
2023-05-07T18:40:40.745Z,2.72
2023-05-07T18:44:40.416Z,2.8
2023-05-07T18:48:40.389Z,2.05
2023-05-07T18:52:40.436Z,2.25
2023-05-07T18:56:40.491Z,2.2
2023-05-07T19:00:40.303Z,2.33
2023-05-07T19:04:40.533Z,2.65
2023-05-07T19:08:40.576Z,2.45
2023-05-07T19:12:40.513Z,2.03
2023-05-07T19:16:40.203Z,1.85
2023-05-07T19:20:41.281Z,2.25
2023-05-07T19:24:40.505Z,2.28
2023-05-07T19:28:45.176Z,1.73
2023-05-07T19:32:41.215Z,1.87
2023-05-07T19:36:40.302Z,1.85
2023-05-07T19:40:40.601Z,1.9
2023-05-07T19:44:40.521Z,2.15
2023-05-07T19:48:40.425Z,2.85
2023-05-07T19:52:40.455Z,2.03
2023-05-07T19:56:40.581Z,2.1
2023-05-07T20:00:40.932Z,2.5
2023-05-07T20:04:40.981Z,1.95
2023-05-07T20:08:40.371Z,2.1
2023-05-07T20:12:40.564Z,2.97
2023-05-07T20:16:40.728Z,3.7
2023-05-07T20:20:40.528Z,2.1
2023-05-07T20:24:40.422Z,2.5
2023-05-07T20:28:40.428Z,3.17
2023-05-07T20:32:40.438Z,2.37
2023-05-07T20:36:40.544Z,2.35
2023-05-07T20:40:40.570Z,3.25
2023-05-07T20:44:40.480Z,2.42
2023-05-07T20:48:40.412Z,2.35
2023-05-07T20:52:40.481Z,2.2
2023-05-07T20:56:40.452Z,2.78
2023-05-07T21:00:40.375Z,2.97
2023-05-07T21:04:41.240Z,3.1
2023-05-07T21:08:40.902Z,2.33
2023-05-07T21:12:40.536Z,2.53
2023-05-07T21:16:40.505Z,3.1
2023-05-07T21:20:40.507Z,2.53
2023-05-07T21:24:40.457Z,2.65
2023-05-07T21:28:40.479Z,3.17
2023-05-07T21:32:40.632Z,2.53
2023-05-07T21:36:40.232Z,2.58
2023-05-07T21:40:40.416Z,3.4
2023-05-07T21:44:39.883Z,2.75
2023-05-07T21:48:40.840Z,3.08
2023-05-07T21:52:40.487Z,3.05
2023-05-07T21:56:39.936Z,3.12
2023-05-07T22:00:39.657Z,3.7
2023-05-07T22:04:40.334Z,4.78
2023-05-07T22:08:40.494Z,3.62
2023-05-07T22:12:40.429Z,3.28
2023-05-07T22:16:40.556Z,3.9
2023-05-07T22:20:40.426Z,4.32
2023-05-07T22:24:40.560Z,5.03
2023-05-07T22:28:40.595Z,4.53
2023-05-07T22:32:40.525Z,4.28
2023-05-07T22:36:40.474Z,4.9
2023-05-07T22:40:40.280Z,4.75
2023-05-07T22:44:40.429Z,4.75
2023-05-07T22:48:39.586Z,5
2023-05-07T22:52:40.484Z,4.7
2023-05-07T22:56:40.972Z,5.4
2023-05-07T23:00:40.422Z,5.7
2023-05-07T23:04:40.402Z,5.43
2023-05-07T23:08:40.587Z,6.05
2023-05-07T23:12:40.490Z,6.2
2023-05-07T23:16:40.437Z,5.2
2023-05-07T23:20:40.494Z,5.57
2023-05-07T23:24:40.490Z,5.43
2023-05-07T23:28:40.532Z,6.73
2023-05-07T23:32:40.538Z,6.4
2023-05-07T23:36:40.377Z,6.77
2023-05-07T23:40:41.245Z,6.43
2023-05-07T23:44:40.472Z,7.03
2023-05-07T23:48:40.391Z,7.33
2023-05-07T23:52:40.485Z,7.43
2023-05-07T23:56:40.398Z,7.87
